Brokaw, Wisconsin
Current Conditions -  °F | °C
As of 3:54 AM on Saturday 25 Oct 2014 (Local Time) from KAUW Reporting Station
Haze Haze  
Wind Chill: 53°   Ceiling: Unl
Heat Index: 53°   Visibility: 6mi
Dew Point: 51°   Wind: 10mph
Humidity: 93%   Direction: 280°W
Pressure: 29.82"   Gusts: NA
Location:  45.03°N, 89.65°W
Report Text: KAUW 250854Z AUTO 28009KT 6SM BR CLR 12/11 A2982 RMK AO2 SLP105 T01170106 56000
Loading
Personal Weather Stations






























Interactive Weather Map
Tropical Storm Tracking
New forecast layout! Learn more

10-Day Weather Forecast

Advertisements
Track Severe Weather on mobile